sensor_id;sensor_type;location;lat;lon;timestamp;P1;durP1;ratioP1;P2;durP2;ratioP2
12840;SDS011;6487;48.626;12.486;2023-07-08T00:00:30;6.43;;;5.00;;
12840;SDS011;6487;48.626;12.486;2023-07-08T00:02:59;6.77;;;4.90;;
12840;SDS011;6487;48.626;12.486;2023-07-08T00:05:29;8.60;;;5.57;;
12840;SDS011;6487;48.626;12.486;2023-07-08T00:08:00;7.47;;;5.33;;
12840;SDS011;6487;48.626;12.486;2023-07-08T00:10:29;6.97;;;5.10;;
12840;SDS011;6487;48.626;12.486;2023-07-08T00:12:57;5.93;;;5.33;;
12840;SDS011;6487;48.626;12.486;2023-07-08T00:15:26;6.70;;;5.63;;
12840;SDS011;6487;48.626;12.486;2023-07-08T00:17:58;6.10;;;5.50;;
12840;SDS011;6487;48.626;12.486;2023-07-08T00:20:31;7.57;;;5.53;;
12840;SDS011;6487;48.626;12.486;2023-07-08T00:23:04;5.50;;;4.93;;
12840;SDS011;6487;48.626;12.486;2023-07-08T00:25:33;5.13;;;4.63;;
12840;SDS011;6487;48.626;12.486;2023-07-08T00:28:01;5.67;;;5.07;;
12840;SDS011;6487;48.626;12.486;2023-07-08T00:30:32;6.30;;;5.30;;
12840;SDS011;6487;48.626;12.486;2023-07-08T00:33:01;8.27;;;5.47;;
12840;SDS011;6487;48.626;12.486;2023-07-08T00:35:31;5.73;;;4.83;;
12840;SDS011;6487;48.626;12.486;2023-07-08T00:38:09;6.07;;;5.47;;
12840;SDS011;6487;48.626;12.486;2023-07-08T00:40:49;7.00;;;4.97;;
12840;SDS011;6487;48.626;12.486;2023-07-08T00:43:19;5.77;;;5.27;;
12840;SDS011;6487;48.626;12.486;2023-07-08T00:46:00;7.13;;;5.53;;
12840;SDS011;6487;48.626;12.486;2023-07-08T00:48:40;7.70;;;5.20;;
12840;SDS011;6487;48.626;12.486;2023-07-08T00:51:10;5.87;;;5.27;;
12840;SDS011;6487;48.626;12.486;2023-07-08T00:53:39;6.23;;;5.17;;
12840;SDS011;6487;48.626;12.486;2023-07-08T00:56:08;6.53;;;5.73;;
12840;SDS011;6487;48.626;12.486;2023-07-08T00:58:43;5.87;;;5.27;;
12840;SDS011;6487;48.626;12.486;2023-07-08T01:01:13;5.63;;;4.80;;
12840;SDS011;6487;48.626;12.486;2023-07-08T01:03:43;6.43;;;5.40;;
12840;SDS011;6487;48.626;12.486;2023-07-08T01:06:19;6.83;;;4.90;;
12840;SDS011;6487;48.626;12.486;2023-07-08T01:08:49;9.17;;;5.90;;
12840;SDS011;6487;48.626;12.486;2023-07-08T01:11:20;6.00;;;5.30;;
12840;SDS011;6487;48.626;12.486;2023-07-08T01:13:49;6.50;;;5.30;;
12840;SDS011;6487;48.626;12.486;2023-07-08T01:16:19;6.77;;;5.43;;
12840;SDS011;6487;48.626;12.486;2023-07-08T01:18:49;5.90;;;5.20;;
12840;SDS011;6487;48.626;12.486;2023-07-08T01:21:28;5.87;;;5.27;;
12840;SDS011;6487;48.626;12.486;2023-07-08T01:24:05;7.43;;;5.37;;
12840;SDS011;6487;48.626;12.486;2023-07-08T01:26:39;6.17;;;4.93;;
12840;SDS011;6487;48.626;12.486;2023-07-08T01:29:11;5.70;;;5.20;;
12840;SDS011;6487;48.626;12.486;2023-07-08T01:31:40;5.90;;;5.27;;
12840;SDS011;6487;48.626;12.486;2023-07-08T01:34:15;5.70;;;5.20;;
12840;SDS011;6487;48.626;12.486;2023-07-08T01:36:45;7.37;;;5.57;;
12840;SDS011;6487;48.626;12.486;2023-07-08T01:39:19;6.20;;;5.60;;
12840;SDS011;6487;48.626;12.486;2023-07-08T01:41:49;8.83;;;5.50;;
12840;SDS011;6487;48.626;12.486;2023-07-08T01:44:21;7.00;;;5.50;;
12840;SDS011;6487;48.626;12.486;2023-07-08T01:46:56;5.17;;;4.67;;
12840;SDS011;6487;48.626;12.486;2023-07-08T01:49:29;7.20;;;5.60;;
12840;SDS011;6487;48.626;12.486;2023-07-08T01:54:37;6.90;;;6.00;;
12840;SDS011;6487;48.626;12.486;2023-07-08T01:57:09;6.67;;;5.77;;
12840;SDS011;6487;48.626;12.486;2023-07-08T01:59:37;7.37;;;5.73;;
12840;SDS011;6487;48.626;12.486;2023-07-08T02:02:05;6.00;;;5.33;;
12840;SDS011;6487;48.626;12.486;2023-07-08T02:04:34;7.60;;;5.53;;
12840;SDS011;6487;48.626;12.486;2023-07-08T02:07:05;7.67;;;5.90;;
12840;SDS011;6487;48.626;12.486;2023-07-08T02:09:33;8.90;;;5.77;;
12840;SDS011;6487;48.626;12.486;2023-07-08T02:12:04;6.00;;;5.40;;
12840;SDS011;6487;48.626;12.486;2023-07-08T02:14:35;6.43;;;5.83;;
12840;SDS011;6487;48.626;12.486;2023-07-08T02:17:04;6.03;;;5.30;;
12840;SDS011;6487;48.626;12.486;2023-07-08T02:19:32;8.50;;;6.10;;
12840;SDS011;6487;48.626;12.486;2023-07-08T02:22:00;6.30;;;5.37;;
12840;SDS011;6487;48.626;12.486;2023-07-08T02:24:30;6.77;;;5.60;;
12840;SDS011;6487;48.626;12.486;2023-07-08T02:26:59;5.80;;;5.20;;
12840;SDS011;6487;48.626;12.486;2023-07-08T02:29:28;8.60;;;5.30;;
12840;SDS011;6487;48.626;12.486;2023-07-08T02:31:58;6.37;;;5.73;;
12840;SDS011;6487;48.626;12.486;2023-07-08T02:34:26;6.67;;;5.83;;
12840;SDS011;6487;48.626;12.486;2023-07-08T02:36:54;7.37;;;5.80;;
12840;SDS011;6487;48.626;12.486;2023-07-08T02:39:23;5.97;;;5.23;;
12840;SDS011;6487;48.626;12.486;2023-07-08T02:41:52;6.23;;;5.63;;
12840;SDS011;6487;48.626;12.486;2023-07-08T02:44:20;5.93;;;5.17;;
12840;SDS011;6487;48.626;12.486;2023-07-08T02:46:49;7.20;;;5.47;;
12840;SDS011;6487;48.626;12.486;2023-07-08T02:49:18;6.37;;;5.77;;
12840;SDS011;6487;48.626;12.486;2023-07-08T02:51:46;5.67;;;4.83;;
12840;SDS011;6487;48.626;12.486;2023-07-08T02:54:17;6.97;;;5.87;;
12840;SDS011;6487;48.626;12.486;2023-07-08T02:56:45;7.83;;;5.00;;
12840;SDS011;6487;48.626;12.486;2023-07-08T02:59:13;8.60;;;6.50;;
12840;SDS011;6487;48.626;12.486;2023-07-08T03:01:42;6.27;;;5.30;;
12840;SDS011;6487;48.626;12.486;2023-07-08T03:04:14;6.10;;;5.50;;
12840;SDS011;6487;48.626;12.486;2023-07-08T03:06:45;6.50;;;5.83;;
12840;SDS011;6487;48.626;12.486;2023-07-08T03:09:13;5.73;;;5.13;;
12840;SDS011;6487;48.626;12.486;2023-07-08T03:11:42;8.63;;;6.03;;
12840;SDS011;6487;48.626;12.486;2023-07-08T03:14:10;6.77;;;6.07;;
12840;SDS011;6487;48.626;12.486;2023-07-08T03:16:39;9.50;;;6.53;;
12840;SDS011;6487;48.626;12.486;2023-07-08T03:19:08;6.43;;;5.33;;
12840;SDS011;6487;48.626;12.486;2023-07-08T03:21:42;6.83;;;5.83;;
12840;SDS011;6487;48.626;12.486;2023-07-08T03:24:11;7.27;;;6.47;;
12840;SDS011;6487;48.626;12.486;2023-07-08T03:26:46;5.90;;;5.30;;
12840;SDS011;6487;48.626;12.486;2023-07-08T03:29:18;6.40;;;5.80;;
12840;SDS011;6487;48.626;12.486;2023-07-08T03:31:46;5.87;;;4.93;;
12840;SDS011;6487;48.626;12.486;2023-07-08T03:34:16;6.00;;;5.40;;
12840;SDS011;6487;48.626;12.486;2023-07-08T03:36:47;7.87;;;6.03;;
12840;SDS011;6487;48.626;12.486;2023-07-08T03:39:17;6.33;;;5.70;;
12840;SDS011;6487;48.626;12.486;2023-07-08T03:41:51;9.47;;;6.43;;
12840;SDS011;6487;48.626;12.486;2023-07-08T03:44:22;6.37;;;5.73;;
12840;SDS011;6487;48.626;12.486;2023-07-08T03:46:51;6.30;;;5.53;;
12840;SDS011;6487;48.626;12.486;2023-07-08T03:49:20;7.47;;;5.80;;
12840;SDS011;6487;48.626;12.486;2023-07-08T03:51:52;6.20;;;5.60;;
12840;SDS011;6487;48.626;12.486;2023-07-08T03:54:22;8.87;;;6.27;;
12840;SDS011;6487;48.626;12.486;2023-07-08T03:56:55;6.73;;;5.70;;
12840;SDS011;6487;48.626;12.486;2023-07-08T03:59:23;6.40;;;5.77;;
12840;SDS011;6487;48.626;12.486;2023-07-08T04:01:51;6.20;;;5.53;;
12840;SDS011;6487;48.626;12.486;2023-07-08T04:04:20;7.10;;;5.03;;
12840;SDS011;6487;48.626;12.486;2023-07-08T04:06:48;6.63;;;5.87;;
12840;SDS011;6487;48.626;12.486;2023-07-08T04:09:19;7.93;;;6.10;;
12840;SDS011;6487;48.626;12.486;2023-07-08T04:11:47;7.67;;;6.37;;
12840;SDS011;6487;48.626;12.486;2023-07-08T04:14:16;7.13;;;5.83;;
12840;SDS011;6487;48.626;12.486;2023-07-08T04:16:45;6.43;;;5.70;;
12840;SDS011;6487;48.626;12.486;2023-07-08T04:19:19;6.30;;;5.70;;
12840;SDS011;6487;48.626;12.486;2023-07-08T04:21:49;7.50;;;5.90;;
12840;SDS011;6487;48.626;12.486;2023-07-08T04:24:19;6.83;;;6.13;;
12840;SDS011;6487;48.626;12.486;2023-07-08T04:26:47;6.83;;;6.03;;
12840;SDS011;6487;48.626;12.486;2023-07-08T04:29:17;6.37;;;5.77;;
12840;SDS011;6487;48.626;12.486;2023-07-08T04:31:48;6.57;;;5.93;;
12840;SDS011;6487;48.626;12.486;2023-07-08T04:34:17;8.30;;;6.70;;
12840;SDS011;6487;48.626;12.486;2023-07-08T04:36:46;6.60;;;5.83;;
12840;SDS011;6487;48.626;12.486;2023-07-08T04:39:14;6.83;;;6.03;;
12840;SDS011;6487;48.626;12.486;2023-07-08T04:41:44;6.83;;;5.50;;
12840;SDS011;6487;48.626;12.486;2023-07-08T04:44:12;8.10;;;6.23;;
12840;SDS011;6487;48.626;12.486;2023-07-08T04:46:45;9.90;;;5.77;;
12840;SDS011;6487;48.626;12.486;2023-07-08T04:49:17;7.67;;;6.20;;
12840;SDS011;6487;48.626;12.486;2023-07-08T04:51:46;6.03;;;5.43;;
12840;SDS011;6487;48.626;12.486;2023-07-08T04:54:14;6.27;;;5.43;;
12840;SDS011;6487;48.626;12.486;2023-07-08T04:56:43;6.50;;;5.50;;
12840;SDS011;6487;48.626;12.486;2023-07-08T04:59:15;7.10;;;5.67;;
12840;SDS011;6487;48.626;12.486;2023-07-08T05:01:45;5.90;;;5.30;;
12840;SDS011;6487;48.626;12.486;2023-07-08T05:04:16;6.70;;;5.30;;
12840;SDS011;6487;48.626;12.486;2023-07-08T05:06:47;6.20;;;5.60;;
12840;SDS011;6487;48.626;12.486;2023-07-08T05:09:16;5.53;;;5.07;;
12840;SDS011;6487;48.626;12.486;2023-07-08T05:11:46;6.53;;;5.90;;
12840;SDS011;6487;48.626;12.486;2023-07-08T05:14:14;6.90;;;5.53;;
12840;SDS011;6487;48.626;12.486;2023-07-08T05:16:43;6.10;;;5.50;;
12840;SDS011;6487;48.626;12.486;2023-07-08T05:19:11;6.00;;;5.40;;
12840;SDS011;6487;48.626;12.486;2023-07-08T05:21:39;6.00;;;4.60;;
12840;SDS011;6487;48.626;12.486;2023-07-08T05:24:11;9.03;;;6.10;;
12840;SDS011;6487;48.626;12.486;2023-07-08T05:26:39;8.17;;;5.73;;
12840;SDS011;6487;48.626;12.486;2023-07-08T05:29:12;6.20;;;5.70;;
12840;SDS011;6487;48.626;12.486;2023-07-08T05:31:40;8.03;;;6.10;;
12840;SDS011;6487;48.626;12.486;2023-07-08T05:34:14;6.07;;;5.47;;
12840;SDS011;6487;48.626;12.486;2023-07-08T05:36:42;8.23;;;5.83;;
12840;SDS011;6487;48.626;12.486;2023-07-08T05:39:11;9.57;;;5.67;;
12840;SDS011;6487;48.626;12.486;2023-07-08T05:41:39;7.80;;;5.17;;
12840;SDS011;6487;48.626;12.486;2023-07-08T05:44:08;5.67;;;5.13;;
12840;SDS011;6487;48.626;12.486;2023-07-08T05:46:38;5.77;;;5.07;;
12840;SDS011;6487;48.626;12.486;2023-07-08T05:49:06;5.97;;;5.37;;
12840;SDS011;6487;48.626;12.486;2023-07-08T05:51:35;5.43;;;4.93;;
12840;SDS011;6487;48.626;12.486;2023-07-08T05:54:07;9.10;;;5.33;;
12840;SDS011;6487;48.626;12.486;2023-07-08T05:56:35;5.03;;;4.53;;
12840;SDS011;6487;48.626;12.486;2023-07-08T05:59:04;5.30;;;4.80;;
12840;SDS011;6487;48.626;12.486;2023-07-08T06:01:32;7.80;;;4.83;;
12840;SDS011;6487;48.626;12.486;2023-07-08T06:04:02;5.33;;;4.63;;
12840;SDS011;6487;48.626;12.486;2023-07-08T06:06:31;5.00;;;4.60;;
12840;SDS011;6487;48.626;12.486;2023-07-08T06:09:02;4.73;;;4.33;;
12840;SDS011;6487;48.626;12.486;2023-07-08T06:11:31;5.80;;;5.17;;
12840;SDS011;6487;48.626;12.486;2023-07-08T06:13:59;5.27;;;4.77;;
12840;SDS011;6487;48.626;12.486;2023-07-08T06:16:28;5.23;;;4.63;;
12840;SDS011;6487;48.626;12.486;2023-07-08T06:19:07;4.93;;;4.50;;
12840;SDS011;6487;48.626;12.486;2023-07-08T06:21:36;5.60;;;5.00;;
12840;SDS011;6487;48.626;12.486;2023-07-08T06:24:05;4.83;;;4.37;;
12840;SDS011;6487;48.626;12.486;2023-07-08T06:26:40;7.20;;;4.53;;
12840;SDS011;6487;48.626;12.486;2023-07-08T06:29:08;5.23;;;4.73;;
12840;SDS011;6487;48.626;12.486;2023-07-08T06:31:36;5.30;;;4.80;;
12840;SDS011;6487;48.626;12.486;2023-07-08T06:34:05;5.27;;;4.77;;
12840;SDS011;6487;48.626;12.486;2023-07-08T06:36:35;5.47;;;4.83;;
12840;SDS011;6487;48.626;12.486;2023-07-08T06:39:03;5.50;;;5.00;;
12840;SDS011;6487;48.626;12.486;2023-07-08T06:41:34;4.60;;;4.20;;
12840;SDS011;6487;48.626;12.486;2023-07-08T06:44:02;4.60;;;4.10;;
12840;SDS011;6487;48.626;12.486;2023-07-08T06:46:31;4.13;;;3.73;;
12840;SDS011;6487;48.626;12.486;2023-07-08T06:49:02;4.93;;;4.33;;
12840;SDS011;6487;48.626;12.486;2023-07-08T06:51:36;5.77;;;4.23;;
12840;SDS011;6487;48.626;12.486;2023-07-08T06:54:05;8.53;;;4.20;;
12840;SDS011;6487;48.626;12.486;2023-07-08T06:56:38;5.87;;;4.93;;
12840;SDS011;6487;48.626;12.486;2023-07-08T06:59:07;5.13;;;4.63;;
12840;SDS011;6487;48.626;12.486;2023-07-08T07:01:36;5.53;;;4.60;;
12840;SDS011;6487;48.626;12.486;2023-07-08T07:04:07;6.80;;;4.80;;
12840;SDS011;6487;48.626;12.486;2023-07-08T07:06:37;5.27;;;4.73;;
12840;SDS011;6487;48.626;12.486;2023-07-08T07:09:06;4.90;;;4.20;;
12840;SDS011;6487;48.626;12.486;2023-07-08T07:11:34;4.90;;;4.40;;
12840;SDS011;6487;48.626;12.486;2023-07-08T07:14:02;4.80;;;4.27;;
12840;SDS011;6487;48.626;12.486;2023-07-08T07:16:51;4.77;;;4.10;;
12840;SDS011;6487;48.626;12.486;2023-07-08T07:19:33;5.27;;;4.43;;
12840;SDS011;6487;48.626;12.486;2023-07-08T07:22:03;4.60;;;4.20;;
12840;SDS011;6487;48.626;12.486;2023-07-08T07:24:32;5.60;;;4.30;;
12840;SDS011;6487;48.626;12.486;2023-07-08T07:27:01;5.67;;;4.90;;
12840;SDS011;6487;48.626;12.486;2023-07-08T07:29:37;5.43;;;4.53;;
12840;SDS011;6487;48.626;12.486;2023-07-08T07:32:09;4.40;;;4.00;;
12840;SDS011;6487;48.626;12.486;2023-07-08T07:34:38;4.73;;;4.20;;
12840;SDS011;6487;48.626;12.486;2023-07-08T07:37:10;5.30;;;4.87;;
12840;SDS011;6487;48.626;12.486;2023-07-08T07:39:40;4.67;;;4.20;;
12840;SDS011;6487;48.626;12.486;2023-07-08T07:42:10;4.70;;;4.20;;
12840;SDS011;6487;48.626;12.486;2023-07-08T07:44:42;6.10;;;4.40;;
12840;SDS011;6487;48.626;12.486;2023-07-08T07:47:11;6.33;;;5.10;;
12840;SDS011;6487;48.626;12.486;2023-07-08T07:49:40;5.17;;;4.67;;
12840;SDS011;6487;48.626;12.486;2023-07-08T07:52:10;5.37;;;4.07;;
12840;SDS011;6487;48.626;12.486;2023-07-08T07:54:54;5.13;;;4.67;;
12840;SDS011;6487;48.626;12.486;2023-07-08T07:57:22;5.37;;;4.57;;
12840;SDS011;6487;48.626;12.486;2023-07-08T07:59:51;4.82;;;4.43;;
12840;SDS011;6487;48.626;12.486;2023-07-08T08:02:25;8.00;;;4.47;;
12840;SDS011;6487;48.626;12.486;2023-07-08T08:04:53;6.47;;;4.63;;
12840;SDS011;6487;48.626;12.486;2023-07-08T08:07:23;5.38;;;4.75;;
12840;SDS011;6487;48.626;12.486;2023-07-08T08:09:52;4.40;;;4.00;;
12840;SDS011;6487;48.626;12.486;2023-07-08T08:12:23;5.78;;;4.47;;
12840;SDS011;6487;48.626;12.486;2023-07-08T08:14:51;5.20;;;4.53;;
12840;SDS011;6487;48.626;12.486;2023-07-08T08:17:19;5.32;;;3.97;;
12840;SDS011;6487;48.626;12.486;2023-07-08T08:19:48;6.47;;;4.13;;
12840;SDS011;6487;48.626;12.486;2023-07-08T08:22:16;6.00;;;4.65;;
12840;SDS011;6487;48.626;12.486;2023-07-08T08:24:46;4.50;;;4.10;;
12840;SDS011;6487;48.626;12.486;2023-07-08T08:27:17;5.07;;;4.57;;
12840;SDS011;6487;48.626;12.486;2023-07-08T08:29:45;4.47;;;4.07;;
12840;SDS011;6487;48.626;12.486;2023-07-08T08:32:14;4.80;;;4.40;;
12840;SDS011;6487;48.626;12.486;2023-07-08T08:34:42;4.40;;;4.00;;
12840;SDS011;6487;48.626;12.486;2023-07-08T08:37:11;6.05;;;4.40;;
12840;SDS011;6487;48.626;12.486;2023-07-08T08:39:39;5.35;;;4.80;;
12840;SDS011;6487;48.626;12.486;2023-07-08T08:42:11;8.65;;;5.18;;
12840;SDS011;6487;48.626;12.486;2023-07-08T08:44:49;4.78;;;4.30;;
12840;SDS011;6487;48.626;12.486;2023-07-08T08:47:21;4.70;;;4.30;;
12840;SDS011;6487;48.626;12.486;2023-07-08T08:50:09;5.80;;;4.43;;
12840;SDS011;6487;48.626;12.486;2023-07-08T08:52:54;4.78;;;4.38;;
12840;SDS011;6487;48.626;12.486;2023-07-08T08:55:31;4.75;;;4.35;;
12840;SDS011;6487;48.626;12.486;2023-07-08T08:58:04;5.50;;;4.75;;
12840;SDS011;6487;48.626;12.486;2023-07-08T09:00:44;5.72;;;4.95;;
12840;SDS011;6487;48.626;12.486;2023-07-08T09:03:27;5.05;;;4.65;;
12840;SDS011;6487;48.626;12.486;2023-07-08T09:06:10;4.68;;;4.10;;
12840;SDS011;6487;48.626;12.486;2023-07-08T09:08:41;5.40;;;4.75;;
12840;SDS011;6487;48.626;12.486;2023-07-08T09:11:14;9.48;;;4.40;;
12840;SDS011;6487;48.626;12.486;2023-07-08T09:13:56;5.00;;;4.57;;
12840;SDS011;6487;48.626;12.486;2023-07-08T09:16:26;4.68;;;4.28;;
12840;SDS011;6487;48.626;12.486;2023-07-08T09:19:09;5.00;;;4.60;;
12840;SDS011;6487;48.626;12.486;2023-07-08T09:21:43;6.00;;;4.68;;
12840;SDS011;6487;48.626;12.486;2023-07-08T09:24:20;6.85;;;4.90;;
12840;SDS011;6487;48.626;12.486;2023-07-08T09:27:11;8.40;;;4.90;;
12840;SDS011;6487;48.626;12.486;2023-07-08T09:29:41;4.80;;;4.40;;
12840;SDS011;6487;48.626;12.486;2023-07-08T09:32:17;5.82;;;4.75;;
12840;SDS011;6487;48.626;12.486;2023-07-08T09:34:50;5.00;;;4.50;;
12840;SDS011;6487;48.626;12.486;2023-07-08T09:37:21;4.95;;;4.32;;
12840;SDS011;6487;48.626;12.486;2023-07-08T09:39:55;5.57;;;4.85;;
12840;SDS011;6487;48.626;12.486;2023-07-08T09:42:27;5.13;;;4.72;;
12840;SDS011;6487;48.626;12.486;2023-07-08T09:45:00;4.93;;;4.53;;
12840;SDS011;6487;48.626;12.486;2023-07-08T09:47:36;4.95;;;4.53;;
12840;SDS011;6487;48.626;12.486;2023-07-08T09:50:15;5.20;;;4.53;;
12840;SDS011;6487;48.626;12.486;2023-07-08T09:52:46;5.25;;;4.75;;
12840;SDS011;6487;48.626;12.486;2023-07-08T09:55:18;5.03;;;4.63;;
12840;SDS011;6487;48.626;12.486;2023-07-08T09:57:47;5.25;;;4.75;;
12840;SDS011;6487;48.626;12.486;2023-07-08T10:00:25;5.20;;;4.70;;
12840;SDS011;6487;48.626;12.486;2023-07-08T10:02:56;6.03;;;4.88;;
12840;SDS011;6487;48.626;12.486;2023-07-08T10:05:27;5.35;;;4.85;;
12840;SDS011;6487;48.626;12.486;2023-07-08T10:08:00;4.82;;;4.43;;
12840;SDS011;6487;48.626;12.486;2023-07-08T10:10:38;5.85;;;4.70;;
12840;SDS011;6487;48.626;12.486;2023-07-08T10:13:11;6.10;;;4.90;;
12840;SDS011;6487;48.626;12.486;2023-07-08T10:15:46;4.93;;;4.53;;
12840;SDS011;6487;48.626;12.486;2023-07-08T10:18:21;5.80;;;4.72;;
12840;SDS011;6487;48.626;12.486;2023-07-08T10:20:56;5.35;;;4.85;;
12840;SDS011;6487;48.626;12.486;2023-07-08T10:23:39;5.22;;;4.82;;
12840;SDS011;6487;48.626;12.486;2023-07-08T10:26:17;5.40;;;4.90;;
12840;SDS011;6487;48.626;12.486;2023-07-08T10:28:56;5.10;;;4.60;;
12840;SDS011;6487;48.626;12.486;2023-07-08T10:31:41;5.20;;;4.70;;
12840;SDS011;6487;48.626;12.486;2023-07-08T10:34:25;4.82;;;4.35;;
12840;SDS011;6487;48.626;12.486;2023-07-08T10:37:09;5.75;;;4.80;;
12840;SDS011;6487;48.626;12.486;2023-07-08T10:40:01;7.72;;;4.68;;
12840;SDS011;6487;48.626;12.486;2023-07-08T10:42:50;5.22;;;4.72;;
12840;SDS011;6487;48.626;12.486;2023-07-08T10:45:34;6.30;;;4.57;;
12840;SDS011;6487;48.626;12.486;2023-07-08T10:48:16;6.82;;;4.55;;
12840;SDS011;6487;48.626;12.486;2023-07-08T10:51:01;7.57;;;5.05;;
12840;SDS011;6487;48.626;12.486;2023-07-08T10:53:42;5.03;;;4.57;;
12840;SDS011;6487;48.626;12.486;2023-07-08T10:56:36;5.18;;;4.78;;
12840;SDS011;6487;48.626;12.486;2023-07-08T10:59:19;5.68;;;4.85;;
12840;SDS011;6487;48.626;12.486;2023-07-08T11:02:16;9.48;;;5.50;;
12840;SDS011;6487;48.626;12.486;2023-07-08T11:05:28;5.03;;;4.53;;
12840;SDS011;6487;48.626;12.486;2023-07-08T11:08:03;6.10;;;5.22;;
12840;SDS011;6487;48.626;12.486;2023-07-08T11:10:40;8.48;;;5.00;;
12840;SDS011;6487;48.626;12.486;2023-07-08T11:13:25;5.47;;;4.97;;
12840;SDS011;6487;48.626;12.486;2023-07-08T11:15:57;5.80;;;4.72;;
12840;SDS011;6487;48.626;12.486;2023-07-08T11:18:35;5.57;;;4.72;;
12840;SDS011;6487;48.626;12.486;2023-07-08T11:21:14;5.18;;;4.68;;
12840;SDS011;6487;48.626;12.486;2023-07-08T11:23:47;5.90;;;4.57;;
12840;SDS011;6487;48.626;12.486;2023-07-08T11:26:23;5.85;;;5.15;;
12840;SDS011;6487;48.626;12.486;2023-07-08T11:28:58;5.25;;;4.85;;
12840;SDS011;6487;48.626;12.486;2023-07-08T11:31:28;5.28;;;4.78;;
12840;SDS011;6487;48.626;12.486;2023-07-08T11:34:00;4.95;;;4.55;;
12840;SDS011;6487;48.626;12.486;2023-07-08T11:36:31;6.38;;;5.60;;
12840;SDS011;6487;48.626;12.486;2023-07-08T11:39:01;5.35;;;4.85;;
12840;SDS011;6487;48.626;12.486;2023-07-08T11:41:31;5.68;;;5.18;;
12840;SDS011;6487;48.626;12.486;2023-07-08T11:44:02;5.35;;;4.85;;
12840;SDS011;6487;48.626;12.486;2023-07-08T11:46:33;7.10;;;4.60;;
12840;SDS011;6487;48.626;12.486;2023-07-08T11:49:02;5.85;;;5.25;;
12840;SDS011;6487;48.626;12.486;2023-07-08T11:51:35;5.97;;;4.93;;
12840;SDS011;6487;48.626;12.486;2023-07-08T11:54:13;5.88;;;5.38;;
12840;SDS011;6487;48.626;12.486;2023-07-08T11:56:48;6.90;;;5.03;;
12840;SDS011;6487;48.626;12.486;2023-07-08T11:59:26;5.32;;;4.80;;
12840;SDS011;6487;48.626;12.486;2023-07-08T12:02:02;6.15;;;4.82;;
12840;SDS011;6487;48.626;12.486;2023-07-08T12:04:51;7.30;;;5.00;;
12840;SDS011;6487;48.626;12.486;2023-07-08T12:07:32;5.22;;;4.72;;
12840;SDS011;6487;48.626;12.486;2023-07-08T12:10:08;5.10;;;4.68;;
12840;SDS011;6487;48.626;12.486;2023-07-08T12:12:54;5.85;;;5.35;;
12840;SDS011;6487;48.626;12.486;2023-07-08T12:15:23;6.80;;;5.28;;
12840;SDS011;6487;48.626;12.486;2023-07-08T12:17:55;7.22;;;5.07;;
12840;SDS011;6487;48.626;12.486;2023-07-08T12:20:28;9.77;;;5.60;;
12840;SDS011;6487;48.626;12.486;2023-07-08T12:23:00;5.88;;;5.28;;
12840;SDS011;6487;48.626;12.486;2023-07-08T12:25:30;5.63;;;5.03;;
12840;SDS011;6487;48.626;12.486;2023-07-08T12:28:01;5.20;;;4.80;;
12840;SDS011;6487;48.626;12.486;2023-07-08T12:30:30;7.97;;;5.18;;
12840;SDS011;6487;48.626;12.486;2023-07-08T12:33:00;6.07;;;5.53;;
12840;SDS011;6487;48.626;12.486;2023-07-08T12:35:31;7.13;;;5.25;;
12840;SDS011;6487;48.626;12.486;2023-07-08T12:38:04;5.60;;;5.10;;
12840;SDS011;6487;48.626;12.486;2023-07-08T12:40:44;5.50;;;4.90;;
12840;SDS011;6487;48.626;12.486;2023-07-08T12:43:12;10.18;;;5.70;;
12840;SDS011;6487;48.626;12.486;2023-07-08T12:45:44;5.40;;;5.00;;
12840;SDS011;6487;48.626;12.486;2023-07-08T12:48:12;6.80;;;5.28;;
12840;SDS011;6487;48.626;12.486;2023-07-08T12:50:41;6.60;;;5.30;;
12840;SDS011;6487;48.626;12.486;2023-07-08T12:53:11;5.43;;;4.80;;
12840;SDS011;6487;48.626;12.486;2023-07-08T12:55:43;6.03;;;4.80;;
12840;SDS011;6487;48.626;12.486;2023-07-08T12:58:13;9.15;;;5.00;;
12840;SDS011;6487;48.626;12.486;2023-07-08T13:00:51;5.38;;;4.88;;
12840;SDS011;6487;48.626;12.486;2023-07-08T13:03:22;5.88;;;5.20;;
12840;SDS011;6487;48.626;12.486;2023-07-08T13:05:54;6.55;;;4.85;;
12840;SDS011;6487;48.626;12.486;2023-07-08T13:08:27;6.25;;;4.85;;
12840;SDS011;6487;48.626;12.486;2023-07-08T13:11:02;5.47;;;5.03;;
12840;SDS011;6487;48.626;12.486;2023-07-08T13:13:33;7.13;;;5.35;;
12840;SDS011;6487;48.626;12.486;2023-07-08T13:16:05;4.78;;;4.38;;
12840;SDS011;6487;48.626;12.486;2023-07-08T13:18:34;9.15;;;4.72;;
12840;SDS011;6487;48.626;12.486;2023-07-08T13:21:05;7.95;;;5.43;;
12840;SDS011;6487;48.626;12.486;2023-07-08T13:23:38;5.63;;;5.00;;
12840;SDS011;6487;48.626;12.486;2023-07-08T13:26:12;6.18;;;4.93;;
12840;SDS011;6487;48.626;12.486;2023-07-08T13:28:42;5.82;;;5.30;;
12840;SDS011;6487;48.626;12.486;2023-07-08T13:31:16;5.60;;;5.10;;
12840;SDS011;6487;48.626;12.486;2023-07-08T13:33:51;5.47;;;4.97;;
12840;SDS011;6487;48.626;12.486;2023-07-08T13:36:22;5.30;;;4.80;;
12840;SDS011;6487;48.626;12.486;2023-07-08T13:38:54;5.30;;;4.80;;
12840;SDS011;6487;48.626;12.486;2023-07-08T13:41:23;5.32;;;4.82;;
12840;SDS011;6487;48.626;12.486;2023-07-08T13:43:52;5.40;;;4.75;;
12840;SDS011;6487;48.626;12.486;2023-07-08T13:46:30;4.88;;;4.40;;
12840;SDS011;6487;48.626;12.486;2023-07-08T13:49:09;5.57;;;4.90;;
12840;SDS011;6487;48.626;12.486;2023-07-08T13:51:41;6.78;;;4.85;;
12840;SDS011;6487;48.626;12.486;2023-07-08T13:54:19;5.40;;;4.78;;
12840;SDS011;6487;48.626;12.486;2023-07-08T13:56:49;5.95;;;4.75;;
12840;SDS011;6487;48.626;12.486;2023-07-08T13:59:21;4.72;;;4.30;;
12840;SDS011;6487;48.626;12.486;2023-07-08T14:01:52;5.68;;;4.38;;
12840;SDS011;6487;48.626;12.486;2023-07-08T14:04:25;4.90;;;4.45;;
12840;SDS011;6487;48.626;12.486;2023-07-08T14:06:57;4.88;;;4.47;;
12840;SDS011;6487;48.626;12.486;2023-07-08T14:09:27;5.28;;;4.78;;
12840;SDS011;6487;48.626;12.486;2023-07-08T14:11:56;4.70;;;4.30;;
12840;SDS011;6487;48.626;12.486;2023-07-08T14:14:24;5.40;;;4.78;;
12840;SDS011;6487;48.626;12.486;2023-07-08T14:16:53;6.55;;;4.80;;
12840;SDS011;6487;48.626;12.486;2023-07-08T14:19:23;5.55;;;5.05;;
12840;SDS011;6487;48.626;12.486;2023-07-08T14:21:55;6.22;;;5.13;;
12840;SDS011;6487;48.626;12.486;2023-07-08T14:24:28;5.10;;;4.63;;
12840;SDS011;6487;48.626;12.486;2023-07-08T14:26:56;4.97;;;4.57;;
12840;SDS011;6487;48.626;12.486;2023-07-08T14:29:25;5.60;;;5.00;;
12840;SDS011;6487;48.626;12.486;2023-07-08T14:31:53;5.68;;;4.80;;
12840;SDS011;6487;48.626;12.486;2023-07-08T14:34:22;6.82;;;4.68;;
12840;SDS011;6487;48.626;12.486;2023-07-08T14:36:53;5.53;;;5.03;;
12840;SDS011;6487;48.626;12.486;2023-07-08T14:39:21;4.90;;;4.47;;
12840;SDS011;6487;48.626;12.486;2023-07-08T14:41:51;7.03;;;4.50;;
12840;SDS011;6487;48.626;12.486;2023-07-08T14:44:21;6.13;;;4.82;;
12840;SDS011;6487;48.626;12.486;2023-07-08T14:46:51;5.18;;;4.78;;
12840;SDS011;6487;48.626;12.486;2023-07-08T14:49:21;6.95;;;4.97;;
12840;SDS011;6487;48.626;12.486;2023-07-08T14:51:51;5.78;;;5.20;;
12840;SDS011;6487;48.626;12.486;2023-07-08T14:54:20;7.93;;;5.00;;
12840;SDS011;6487;48.626;12.486;2023-07-08T14:56:49;5.72;;;5.22;;
12840;SDS011;6487;48.626;12.486;2023-07-08T14:59:22;7.78;;;5.18;;
12840;SDS011;6487;48.626;12.486;2023-07-08T15:01:54;5.80;;;4.32;;
12840;SDS011;6487;48.626;12.486;2023-07-08T15:04:25;5.80;;;4.68;;
12840;SDS011;6487;48.626;12.486;2023-07-08T15:06:54;5.30;;;4.80;;
12840;SDS011;6487;48.626;12.486;2023-07-08T15:09:26;5.60;;;4.68;;
12840;SDS011;6487;48.626;12.486;2023-07-08T15:11:56;5.80;;;4.82;;
12840;SDS011;6487;48.626;12.486;2023-07-08T15:14:24;4.97;;;4.40;;
12840;SDS011;6487;48.626;12.486;2023-07-08T15:16:53;5.35;;;4.65;;
12840;SDS011;6487;48.626;12.486;2023-07-08T15:19:22;5.32;;;4.82;;